sensor_id;sensor_type;location;lat;lon;timestamp;P1;durP1;ratioP1;P2;durP2;ratioP2
57697;SDS011;43531;52.152;6.366;2023-05-31T00:00:05;5.32;;;4.25;;
57697;SDS011;43531;52.152;6.366;2023-05-31T00:00:37;6.38;;;5.18;;
57697;SDS011;43531;52.152;6.366;2023-05-31T00:01:09;6.95;;;5.10;;
57697;SDS011;43531;52.152;6.366;2023-05-31T00:01:41;6.18;;;4.80;;
57697;SDS011;43531;52.152;6.366;2023-05-31T00:02:13;6.30;;;4.45;;
57697;SDS011;43531;52.152;6.366;2023-05-31T00:02:45;8.88;;;6.50;;
57697;SDS011;43531;52.152;6.366;2023-05-31T00:03:16;6.40;;;5.03;;
57697;SDS011;43531;52.152;6.366;2023-05-31T00:03:48;6.75;;;4.72;;
57697;SDS011;43531;52.152;6.366;2023-05-31T00:04:20;9.43;;;5.10;;
57697;SDS011;43531;52.152;6.366;2023-05-31T00:04:51;4.95;;;4.45;;
57697;SDS011;43531;52.152;6.366;2023-05-31T00:05:23;8.15;;;5.32;;
57697;SDS011;43531;52.152;6.366;2023-05-31T00:05:54;7.20;;;5.47;;
57697;SDS011;43531;52.152;6.366;2023-05-31T00:06:26;8.38;;;5.30;;
57697;SDS011;43531;52.152;6.366;2023-05-31T00:06:58;7.78;;;5.15;;
57697;SDS011;43531;52.152;6.366;2023-05-31T00:07:29;7.38;;;4.78;;
57697;SDS011;43531;52.152;6.366;2023-05-31T00:08:01;9.43;;;5.45;;
57697;SDS011;43531;52.152;6.366;2023-05-31T00:08:33;6.43;;;5.68;;
57697;SDS011;43531;52.152;6.366;2023-05-31T00:09:04;14.48;;;5.30;;
57697;SDS011;43531;52.152;6.366;2023-05-31T00:09:36;5.28;;;4.78;;
57697;SDS011;43531;52.152;6.366;2023-05-31T00:10:08;8.13;;;4.82;;
57697;SDS011;43531;52.152;6.366;2023-05-31T00:10:39;7.07;;;4.78;;
57697;SDS011;43531;52.152;6.366;2023-05-31T00:11:11;8.50;;;4.97;;
57697;SDS011;43531;52.152;6.366;2023-05-31T00:11:43;7.20;;;5.53;;
57697;SDS011;43531;52.152;6.366;2023-05-31T00:12:15;5.65;;;4.78;;
57697;SDS011;43531;52.152;6.366;2023-05-31T00:12:47;5.50;;;4.57;;
57697;SDS011;43531;52.152;6.366;2023-05-31T00:13:18;4.60;;;4.18;;
57697;SDS011;43531;52.152;6.366;2023-05-31T00:13:50;7.22;;;4.80;;
57697;SDS011;43531;52.152;6.366;2023-05-31T00:14:21;5.38;;;4.85;;
57697;SDS011;43531;52.152;6.366;2023-05-31T00:14:53;5.47;;;4.70;;
57697;SDS011;43531;52.152;6.366;2023-05-31T00:15:25;5.65;;;4.18;;
57697;SDS011;43531;52.152;6.366;2023-05-31T00:15:56;5.18;;;4.68;;
57697;SDS011;43531;52.152;6.366;2023-05-31T00:16:28;5.45;;;4.53;;
57697;SDS011;43531;52.152;6.366;2023-05-31T00:17:02;6.55;;;5.00;;
57697;SDS011;43531;52.152;6.366;2023-05-31T00:17:54;4.65;;;3.75;;
57697;SDS011;43531;52.152;6.366;2023-05-31T00:18:26;7.15;;;5.03;;
57697;SDS011;43531;52.152;6.366;2023-05-31T00:18:58;4.30;;;3.75;;
57697;SDS011;43531;52.152;6.366;2023-05-31T00:19:29;5.40;;;4.00;;
57697;SDS011;43531;52.152;6.366;2023-05-31T00:20:01;6.95;;;4.55;;
57697;SDS011;43531;52.152;6.366;2023-05-31T00:20:33;5.93;;;4.18;;
57697;SDS011;43531;52.152;6.366;2023-05-31T00:21:06;5.78;;;4.80;;
57697;SDS011;43531;52.152;6.366;2023-05-31T00:21:37;7.63;;;4.68;;
57697;SDS011;43531;52.152;6.366;2023-05-31T00:22:09;5.63;;;4.82;;
57697;SDS011;43531;52.152;6.366;2023-05-31T00:22:41;7.70;;;5.15;;
57697;SDS011;43531;52.152;6.366;2023-05-31T00:23:13;6.10;;;4.13;;
57697;SDS011;43531;52.152;6.366;2023-05-31T00:23:45;6.07;;;4.88;;
57697;SDS011;43531;52.152;6.366;2023-05-31T00:24:16;7.07;;;5.18;;
57697;SDS011;43531;52.152;6.366;2023-05-31T00:24:48;6.93;;;4.45;;
57697;SDS011;43531;52.152;6.366;2023-05-31T00:25:20;9.85;;;4.03;;
57697;SDS011;43531;52.152;6.366;2023-05-31T00:25:51;10.32;;;5.07;;
57697;SDS011;43531;52.152;6.366;2023-05-31T00:26:24;8.40;;;4.90;;
57697;SDS011;43531;52.152;6.366;2023-05-31T00:26:56;5.55;;;4.68;;
57697;SDS011;43531;52.152;6.366;2023-05-31T00:27:28;8.77;;;5.65;;
57697;SDS011;43531;52.152;6.366;2023-05-31T00:28:00;5.55;;;4.95;;
57697;SDS011;43531;52.152;6.366;2023-05-31T00:28:32;6.57;;;5.60;;
57697;SDS011;43531;52.152;6.366;2023-05-31T00:29:04;4.72;;;4.32;;
57697;SDS011;43531;52.152;6.366;2023-05-31T00:29:36;6.25;;;4.22;;
57697;SDS011;43531;52.152;6.366;2023-05-31T00:30:08;4.80;;;4.18;;
57697;SDS011;43531;52.152;6.366;2023-05-31T00:30:40;7.47;;;4.80;;
57697;SDS011;43531;52.152;6.366;2023-05-31T00:31:12;6.32;;;4.97;;
57697;SDS011;43531;52.152;6.366;2023-05-31T00:31:43;6.18;;;5.32;;
57697;SDS011;43531;52.152;6.366;2023-05-31T00:32:16;4.43;;;4.03;;
57697;SDS011;43531;52.152;6.366;2023-05-31T00:32:47;4.10;;;3.70;;
57697;SDS011;43531;52.152;6.366;2023-05-31T00:33:19;5.30;;;4.80;;
57697;SDS011;43531;52.152;6.366;2023-05-31T00:33:50;8.05;;;4.82;;
57697;SDS011;43531;52.152;6.366;2023-05-31T00:34:22;4.35;;;3.95;;
57697;SDS011;43531;52.152;6.366;2023-05-31T00:34:55;5.75;;;4.10;;
57697;SDS011;43531;52.152;6.366;2023-05-31T00:35:27;6.47;;;4.70;;
57697;SDS011;43531;52.152;6.366;2023-05-31T00:35:58;5.30;;;4.65;;
57697;SDS011;43531;52.152;6.366;2023-05-31T00:36:30;5.40;;;3.80;;
57697;SDS011;43531;52.152;6.366;2023-05-31T00:37:02;5.00;;;4.50;;
57697;SDS011;43531;52.152;6.366;2023-05-31T00:37:33;5.20;;;4.70;;
57697;SDS011;43531;52.152;6.366;2023-05-31T00:38:08;4.82;;;3.92;;
57697;SDS011;43531;52.152;6.366;2023-05-31T00:38:40;4.85;;;4.40;;
57697;SDS011;43531;52.152;6.366;2023-05-31T00:39:12;5.38;;;4.60;;
57697;SDS011;43531;52.152;6.366;2023-05-31T00:39:45;6.60;;;4.53;;
57697;SDS011;43531;52.152;6.366;2023-05-31T00:40:16;6.65;;;4.10;;
57697;SDS011;43531;52.152;6.366;2023-05-31T00:40:48;8.85;;;4.95;;
57697;SDS011;43531;52.152;6.366;2023-05-31T00:41:19;15.80;;;4.63;;
57697;SDS011;43531;52.152;6.366;2023-05-31T00:41:52;5.05;;;4.10;;
57697;SDS011;43531;52.152;6.366;2023-05-31T00:42:24;7.55;;;4.40;;
57697;SDS011;43531;52.152;6.366;2023-05-31T00:42:57;6.15;;;4.05;;
57697;SDS011;43531;52.152;6.366;2023-05-31T00:43:29;6.60;;;5.38;;
57697;SDS011;43531;52.152;6.366;2023-05-31T00:44:01;7.78;;;4.80;;
57697;SDS011;43531;52.152;6.366;2023-05-31T00:44:33;6.30;;;5.05;;
57697;SDS011;43531;52.152;6.366;2023-05-31T00:45:06;10.50;;;5.53;;
57697;SDS011;43531;52.152;6.366;2023-05-31T00:45:39;6.38;;;5.40;;
57697;SDS011;43531;52.152;6.366;2023-05-31T00:46:25;5.88;;;4.03;;
57697;SDS011;43531;52.152;6.366;2023-05-31T00:47:36;4.40;;;3.85;;
57697;SDS011;43531;52.152;6.366;2023-05-31T00:48:09;7.07;;;4.47;;
57697;SDS011;43531;52.152;6.366;2023-05-31T00:48:41;6.72;;;4.50;;
57697;SDS011;43531;52.152;6.366;2023-05-31T00:49:14;6.95;;;4.63;;
57697;SDS011;43531;52.152;6.366;2023-05-31T00:49:46;9.13;;;5.60;;
57697;SDS011;43531;52.152;6.366;2023-05-31T00:50:17;6.65;;;4.82;;
57697;SDS011;43531;52.152;6.366;2023-05-31T00:50:49;5.68;;;5.05;;
57697;SDS011;43531;52.152;6.366;2023-05-31T00:51:21;7.68;;;5.53;;
57697;SDS011;43531;52.152;6.366;2023-05-31T00:51:54;5.15;;;4.65;;
57697;SDS011;43531;52.152;6.366;2023-05-31T00:52:26;7.78;;;4.95;;
57697;SDS011;43531;52.152;6.366;2023-05-31T00:52:59;7.72;;;4.80;;
57697;SDS011;43531;52.152;6.366;2023-05-31T00:53:31;6.85;;;4.45;;
57697;SDS011;43531;52.152;6.366;2023-05-31T00:54:03;5.40;;;4.82;;
57697;SDS011;43531;52.152;6.366;2023-05-31T00:54:35;9.68;;;4.53;;
57697;SDS011;43531;52.152;6.366;2023-05-31T00:55:07;7.72;;;5.32;;
57697;SDS011;43531;52.152;6.366;2023-05-31T00:55:41;8.20;;;5.43;;
57697;SDS011;43531;52.152;6.366;2023-05-31T00:56:13;11.88;;;6.35;;
57697;SDS011;43531;52.152;6.366;2023-05-31T00:56:46;7.85;;;4.82;;
57697;SDS011;43531;52.152;6.366;2023-05-31T00:57:20;23.60;;;6.40;;
57697;SDS011;43531;52.152;6.366;2023-05-31T00:57:52;34.22;;;7.22;;
57697;SDS011;43531;52.152;6.366;2023-05-31T00:58:24;37.95;;;9.70;;
57697;SDS011;43531;52.152;6.366;2023-05-31T00:58:58;18.42;;;6.75;;
57697;SDS011;43531;52.152;6.366;2023-05-31T00:59:30;26.92;;;7.20;;
57697;SDS011;43531;52.152;6.366;2023-05-31T01:00:03;20.60;;;6.93;;
57697;SDS011;43531;52.152;6.366;2023-05-31T01:00:36;21.05;;;7.75;;
57697;SDS011;43531;52.152;6.366;2023-05-31T01:01:08;21.00;;;6.93;;
57697;SDS011;43531;52.152;6.366;2023-05-31T01:01:41;32.25;;;8.10;;
57697;SDS011;43531;52.152;6.366;2023-05-31T01:02:17;27.67;;;6.97;;
57697;SDS011;43531;52.152;6.366;2023-05-31T01:02:50;25.70;;;7.50;;
57697;SDS011;43531;52.152;6.366;2023-05-31T01:03:23;25.08;;;8.05;;
57697;SDS011;43531;52.152;6.366;2023-05-31T01:03:55;21.92;;;7.72;;
57697;SDS011;43531;52.152;6.366;2023-05-31T01:04:28;20.88;;;7.10;;
57697;SDS011;43531;52.152;6.366;2023-05-31T01:05:00;12.45;;;6.55;;
57697;SDS011;43531;52.152;6.366;2023-05-31T01:05:32;8.30;;;5.65;;
57697;SDS011;43531;52.152;6.366;2023-05-31T01:06:04;8.77;;;5.85;;
57697;SDS011;43531;52.152;6.366;2023-05-31T01:06:36;8.98;;;5.80;;
57697;SDS011;43531;52.152;6.366;2023-05-31T01:07:10;8.23;;;4.82;;
57697;SDS011;43531;52.152;6.366;2023-05-31T01:07:45;9.38;;;5.90;;
57697;SDS011;43531;52.152;6.366;2023-05-31T01:08:17;9.82;;;6.10;;
57697;SDS011;43531;52.152;6.366;2023-05-31T01:08:52;6.85;;;5.75;;
57697;SDS011;43531;52.152;6.366;2023-05-31T01:09:24;10.35;;;5.32;;
57697;SDS011;43531;52.152;6.366;2023-05-31T01:09:55;9.30;;;5.07;;
57697;SDS011;43531;52.152;6.366;2023-05-31T01:10:28;8.30;;;4.82;;
57697;SDS011;43531;52.152;6.366;2023-05-31T01:11:04;8.35;;;5.05;;
57697;SDS011;43531;52.152;6.366;2023-05-31T01:12:41;6.07;;;4.28;;
57697;SDS011;43531;52.152;6.366;2023-05-31T01:13:38;8.32;;;4.10;;
57697;SDS011;43531;52.152;6.366;2023-05-31T01:15:27;8.77;;;5.13;;
57697;SDS011;43531;52.152;6.366;2023-05-31T01:16:12;7.20;;;5.28;;
57697;SDS011;43531;52.152;6.366;2023-05-31T01:16:52;6.78;;;4.50;;
57697;SDS011;43531;52.152;6.366;2023-05-31T01:17:33;10.82;;;6.10;;
57697;SDS011;43531;52.152;6.366;2023-05-31T01:18:33;7.75;;;5.57;;
57697;SDS011;43531;52.152;6.366;2023-05-31T01:19:09;7.25;;;5.07;;
57697;SDS011;43531;52.152;6.366;2023-05-31T01:19:50;8.70;;;5.15;;
57697;SDS011;43531;52.152;6.366;2023-05-31T01:20:23;8.63;;;5.20;;
57697;SDS011;43531;52.152;6.366;2023-05-31T01:20:56;8.38;;;5.75;;
57697;SDS011;43531;52.152;6.366;2023-05-31T01:24:34;7.57;;;5.60;;
57697;SDS011;43531;52.152;6.366;2023-05-31T01:26:44;8.98;;;4.75;;
57697;SDS011;43531;52.152;6.366;2023-05-31T01:27:17;4.85;;;4.25;;
57697;SDS011;43531;52.152;6.366;2023-05-31T01:27:49;6.10;;;4.20;;
57697;SDS011;43531;52.152;6.366;2023-05-31T01:28:21;10.18;;;5.80;;
57697;SDS011;43531;52.152;6.366;2023-05-31T01:28:55;11.35;;;4.88;;
57697;SDS011;43531;52.152;6.366;2023-05-31T01:29:28;7.32;;;4.80;;
57697;SDS011;43531;52.152;6.366;2023-05-31T01:30:01;5.80;;;4.05;;
57697;SDS011;43531;52.152;6.366;2023-05-31T01:30:36;7.22;;;5.00;;
57697;SDS011;43531;52.152;6.366;2023-05-31T01:31:08;6.85;;;5.15;;
57697;SDS011;43531;52.152;6.366;2023-05-31T01:31:41;7.30;;;4.78;;
57697;SDS011;43531;52.152;6.366;2023-05-31T01:32:14;8.80;;;5.45;;
57697;SDS011;43531;52.152;6.366;2023-05-31T01:32:47;6.95;;;5.55;;
57697;SDS011;43531;52.152;6.366;2023-05-31T01:33:19;6.40;;;4.85;;
57697;SDS011;43531;52.152;6.366;2023-05-31T01:33:53;8.27;;;4.65;;
57697;SDS011;43531;52.152;6.366;2023-05-31T01:34:27;6.07;;;4.30;;
57697;SDS011;43531;52.152;6.366;2023-05-31T01:34:58;6.43;;;4.93;;
57697;SDS011;43531;52.152;6.366;2023-05-31T01:35:30;7.13;;;5.13;;
57697;SDS011;43531;52.152;6.366;2023-05-31T01:36:02;8.23;;;5.65;;
57697;SDS011;43531;52.152;6.366;2023-05-31T01:36:34;5.78;;;4.53;;
57697;SDS011;43531;52.152;6.366;2023-05-31T01:37:06;7.85;;;5.15;;
57697;SDS011;43531;52.152;6.366;2023-05-31T01:37:40;7.13;;;4.53;;
57697;SDS011;43531;52.152;6.366;2023-05-31T01:38:11;6.90;;;4.97;;
57697;SDS011;43531;52.152;6.366;2023-05-31T01:38:43;7.63;;;4.68;;
57697;SDS011;43531;52.152;6.366;2023-05-31T01:39:15;9.57;;;4.97;;
57697;SDS011;43531;52.152;6.366;2023-05-31T01:39:47;7.47;;;4.95;;
57697;SDS011;43531;52.152;6.366;2023-05-31T01:40:20;7.05;;;4.20;;
57697;SDS011;43531;52.152;6.366;2023-05-31T01:40:52;6.88;;;4.60;;
57697;SDS011;43531;52.152;6.366;2023-05-31T01:41:25;8.60;;;4.80;;
57697;SDS011;43531;52.152;6.366;2023-05-31T01:41:57;7.85;;;4.88;;
57697;SDS011;43531;52.152;6.366;2023-05-31T01:42:29;7.80;;;5.45;;
57697;SDS011;43531;52.152;6.366;2023-05-31T01:43:03;7.97;;;5.35;;
57697;SDS011;43531;52.152;6.366;2023-05-31T01:43:36;6.93;;;5.15;;
57697;SDS011;43531;52.152;6.366;2023-05-31T01:44:13;9.82;;;5.38;;
57697;SDS011;43531;52.152;6.366;2023-05-31T01:44:45;9.00;;;5.22;;
57697;SDS011;43531;52.152;6.366;2023-05-31T01:45:19;6.60;;;5.05;;
57697;SDS011;43531;52.152;6.366;2023-05-31T01:45:53;5.07;;;4.25;;
57697;SDS011;43531;52.152;6.366;2023-05-31T01:46:26;7.40;;;5.07;;
57697;SDS011;43531;52.152;6.366;2023-05-31T01:46:58;7.00;;;4.35;;
57697;SDS011;43531;52.152;6.366;2023-05-31T01:47:30;6.47;;;5.70;;
57697;SDS011;43531;52.152;6.366;2023-05-31T01:48:04;9.48;;;4.65;;
57697;SDS011;43531;52.152;6.366;2023-05-31T01:48:36;7.65;;;5.35;;
57697;SDS011;43531;52.152;6.366;2023-05-31T01:49:09;9.68;;;4.38;;
57697;SDS011;43531;52.152;6.366;2023-05-31T01:49:42;11.13;;;4.72;;
57697;SDS011;43531;52.152;6.366;2023-05-31T01:50:13;13.50;;;5.45;;
57697;SDS011;43531;52.152;6.366;2023-05-31T01:50:47;7.35;;;5.10;;
57697;SDS011;43531;52.152;6.366;2023-05-31T01:51:18;8.18;;;4.90;;
57697;SDS011;43531;52.152;6.366;2023-05-31T01:51:52;8.15;;;5.07;;
57697;SDS011;43531;52.152;6.366;2023-05-31T01:52:24;6.28;;;5.05;;
57697;SDS011;43531;52.152;6.366;2023-05-31T01:52:57;6.07;;;4.65;;
57697;SDS011;43531;52.152;6.366;2023-05-31T01:53:28;8.60;;;5.25;;
57697;SDS011;43531;52.152;6.366;2023-05-31T01:54:00;7.60;;;5.05;;
57697;SDS011;43531;52.152;6.366;2023-05-31T01:54:32;9.07;;;4.78;;
57697;SDS011;43531;52.152;6.366;2023-05-31T01:55:07;9.48;;;5.93;;
57697;SDS011;43531;52.152;6.366;2023-05-31T01:55:39;7.32;;;4.93;;
57697;SDS011;43531;52.152;6.366;2023-05-31T01:56:16;8.13;;;5.63;;
57697;SDS011;43531;52.152;6.366;2023-05-31T01:56:48;6.72;;;4.95;;
57697;SDS011;43531;52.152;6.366;2023-05-31T01:57:21;7.70;;;5.20;;
57697;SDS011;43531;52.152;6.366;2023-05-31T01:57:53;10.30;;;4.97;;
57697;SDS011;43531;52.152;6.366;2023-05-31T01:58:26;6.82;;;4.45;;
57697;SDS011;43531;52.152;6.366;2023-05-31T01:58:59;7.40;;;5.28;;
57697;SDS011;43531;52.152;6.366;2023-05-31T01:59:32;9.05;;;5.47;;
57697;SDS011;43531;52.152;6.366;2023-05-31T02:00:05;6.22;;;4.78;;
57697;SDS011;43531;52.152;6.366;2023-05-31T02:00:43;9.57;;;5.38;;
57697;SDS011;43531;52.152;6.366;2023-05-31T02:01:15;9.07;;;5.40;;
57697;SDS011;43531;52.152;6.366;2023-05-31T02:01:50;6.10;;;4.75;;
57697;SDS011;43531;52.152;6.366;2023-05-31T02:02:21;7.22;;;5.68;;
57697;SDS011;43531;52.152;6.366;2023-05-31T02:02:53;8.90;;;4.90;;
57697;SDS011;43531;52.152;6.366;2023-05-31T02:03:25;10.10;;;4.60;;
57697;SDS011;43531;52.152;6.366;2023-05-31T02:03:57;7.10;;;4.20;;
57697;SDS011;43531;52.152;6.366;2023-05-31T02:04:29;6.18;;;5.05;;
57697;SDS011;43531;52.152;6.366;2023-05-31T02:05:05;7.32;;;5.35;;
57697;SDS011;43531;52.152;6.366;2023-05-31T02:05:59;8.00;;;5.65;;
57697;SDS011;43531;52.152;6.366;2023-05-31T02:06:36;8.65;;;4.93;;
57697;SDS011;43531;52.152;6.366;2023-05-31T02:07:08;7.45;;;5.22;;
57697;SDS011;43531;52.152;6.366;2023-05-31T02:07:40;9.55;;;5.63;;
57697;SDS011;43531;52.152;6.366;2023-05-31T02:08:12;6.70;;;5.45;;
57697;SDS011;43531;52.152;6.366;2023-05-31T02:08:45;8.68;;;6.28;;
57697;SDS011;43531;52.152;6.366;2023-05-31T02:09:17;10.35;;;5.97;;
57697;SDS011;43531;52.152;6.366;2023-05-31T02:09:50;8.45;;;4.70;;
57697;SDS011;43531;52.152;6.366;2023-05-31T02:10:22;9.95;;;5.65;;
57697;SDS011;43531;52.152;6.366;2023-05-31T02:10:54;9.05;;;5.78;;
57697;SDS011;43531;52.152;6.366;2023-05-31T02:11:26;7.60;;;5.82;;
57697;SDS011;43531;52.152;6.366;2023-05-31T02:11:59;10.65;;;5.95;;
57697;SDS011;43531;52.152;6.366;2023-05-31T02:12:31;13.27;;;6.90;;
57697;SDS011;43531;52.152;6.366;2023-05-31T02:13:03;7.63;;;5.35;;
57697;SDS011;43531;52.152;6.366;2023-05-31T02:13:34;6.93;;;5.60;;
57697;SDS011;43531;52.152;6.366;2023-05-31T02:14:06;10.73;;;6.05;;
57697;SDS011;43531;52.152;6.366;2023-05-31T02:14:38;8.65;;;6.10;;
57697;SDS011;43531;52.152;6.366;2023-05-31T02:15:10;8.93;;;6.78;;
57697;SDS011;43531;52.152;6.366;2023-05-31T02:15:44;8.95;;;6.25;;
57697;SDS011;43531;52.152;6.366;2023-05-31T02:16:16;7.45;;;5.95;;
57697;SDS011;43531;52.152;6.366;2023-05-31T02:16:52;8.90;;;5.97;;
57697;SDS011;43531;52.152;6.366;2023-05-31T02:17:24;9.13;;;5.88;;
57697;SDS011;43531;52.152;6.366;2023-05-31T02:17:56;7.30;;;5.75;;
57697;SDS011;43531;52.152;6.366;2023-05-31T02:18:30;9.73;;;6.20;;
57697;SDS011;43531;52.152;6.366;2023-05-31T02:19:01;7.90;;;5.82;;
57697;SDS011;43531;52.152;6.366;2023-05-31T02:19:34;9.30;;;5.88;;
57697;SDS011;43531;52.152;6.366;2023-05-31T02:20:09;7.22;;;6.20;;
57697;SDS011;43531;52.152;6.366;2023-05-31T02:20:43;8.15;;;6.15;;
57697;SDS011;43531;52.152;6.366;2023-05-31T02:21:21;12.07;;;6.40;;
57697;SDS011;43531;52.152;6.366;2023-05-31T02:21:53;6.25;;;5.00;;
57697;SDS011;43531;52.152;6.366;2023-05-31T02:22:25;7.97;;;5.43;;
57697;SDS011;43531;52.152;6.366;2023-05-31T02:22:57;6.75;;;5.57;;
57697;SDS011;43531;52.152;6.366;2023-05-31T02:23:28;8.82;;;5.38;;
57697;SDS011;43531;52.152;6.366;2023-05-31T02:24:00;7.43;;;6.65;;
57697;SDS011;43531;52.152;6.366;2023-05-31T02:24:31;8.82;;;6.35;;
57697;SDS011;43531;52.152;6.366;2023-05-31T02:25:03;11.30;;;6.00;;
57697;SDS011;43531;52.152;6.366;2023-05-31T02:25:36;12.93;;;6.10;;
57697;SDS011;43531;52.152;6.366;2023-05-31T02:26:08;10.70;;;7.13;;
57697;SDS011;43531;52.152;6.366;2023-05-31T02:26:40;8.48;;;6.07;;
57697;SDS011;43531;52.152;6.366;2023-05-31T02:27:12;9.68;;;6.28;;
57697;SDS011;43531;52.152;6.366;2023-05-31T02:27:44;7.68;;;6.28;;
57697;SDS011;43531;52.152;6.366;2023-05-31T02:28:16;7.70;;;6.00;;
57697;SDS011;43531;52.152;6.366;2023-05-31T02:28:47;7.78;;;6.20;;
57697;SDS011;43531;52.152;6.366;2023-05-31T02:29:20;9.07;;;6.40;;
57697;SDS011;43531;52.152;6.366;2023-05-31T02:29:52;8.18;;;6.05;;
57697;SDS011;43531;52.152;6.366;2023-05-31T02:30:25;8.85;;;6.00;;
57697;SDS011;43531;52.152;6.366;2023-05-31T02:30:58;7.53;;;6.22;;
57697;SDS011;43531;52.152;6.366;2023-05-31T02:31:33;9.40;;;6.05;;
57697;SDS011;43531;52.152;6.366;2023-05-31T02:32:06;7.93;;;5.95;;
57697;SDS011;43531;52.152;6.366;2023-05-31T02:32:38;10.57;;;5.70;;
57697;SDS011;43531;52.152;6.366;2023-05-31T02:33:10;8.32;;;5.78;;
57697;SDS011;43531;52.152;6.366;2023-05-31T02:33:42;10.93;;;6.03;;
57697;SDS011;43531;52.152;6.366;2023-05-31T02:34:13;7.93;;;5.97;;
57697;SDS011;43531;52.152;6.366;2023-05-31T02:34:47;12.02;;;5.97;;
57697;SDS011;43531;52.152;6.366;2023-05-31T02:35:19;12.55;;;6.65;;
57697;SDS011;43531;52.152;6.366;2023-05-31T02:35:52;8.80;;;6.15;;
57697;SDS011;43531;52.152;6.366;2023-05-31T02:36:24;8.85;;;6.97;;
57697;SDS011;43531;52.152;6.366;2023-05-31T02:37:00;10.32;;;7.65;;
57697;SDS011;43531;52.152;6.366;2023-05-31T02:37:32;9.07;;;5.68;;
57697;SDS011;43531;52.152;6.366;2023-05-31T02:38:04;7.88;;;5.82;;
57697;SDS011;43531;52.152;6.366;2023-05-31T02:38:36;8.90;;;6.15;;
57697;SDS011;43531;52.152;6.366;2023-05-31T02:39:08;9.05;;;5.30;;
57697;SDS011;43531;52.152;6.366;2023-05-31T02:39:40;6.75;;;5.47;;
57697;SDS011;43531;52.152;6.366;2023-05-31T02:40:11;7.28;;;6.15;;
57697;SDS011;43531;52.152;6.366;2023-05-31T02:40:43;11.32;;;6.05;;
57697;SDS011;43531;52.152;6.366;2023-05-31T02:41:14;8.20;;;5.97;;
57697;SDS011;43531;52.152;6.366;2023-05-31T02:41:46;13.63;;;6.03;;
57697;SDS011;43531;52.152;6.366;2023-05-31T02:42:18;8.40;;;6.03;;
57697;SDS011;43531;52.152;6.366;2023-05-31T02:42:49;8.40;;;6.97;;
57697;SDS011;43531;52.152;6.366;2023-05-31T02:43:21;7.50;;;5.93;;
57697;SDS011;43531;52.152;6.366;2023-05-31T02:43:53;10.52;;;6.72;;
57697;SDS011;43531;52.152;6.366;2023-05-31T02:44:24;9.57;;;6.13;;
57697;SDS011;43531;52.152;6.366;2023-05-31T02:44:56;11.13;;;6.00;;
57697;SDS011;43531;52.152;6.366;2023-05-31T02:45:31;11.77;;;7.22;;
57697;SDS011;43531;52.152;6.366;2023-05-31T02:46:03;9.13;;;6.50;;
57697;SDS011;43531;52.152;6.366;2023-05-31T02:46:36;10.23;;;6.68;;
57697;SDS011;43531;52.152;6.366;2023-05-31T02:47:07;10.27;;;6.25;;
57697;SDS011;43531;52.152;6.366;2023-05-31T02:47:39;8.43;;;5.82;;
57697;SDS011;43531;52.152;6.366;2023-05-31T02:48:12;10.45;;;6.15;;
57697;SDS011;43531;52.152;6.366;2023-05-31T02:48:44;9.95;;;6.45;;
57697;SDS011;43531;52.152;6.366;2023-05-31T02:49:16;10.63;;;7.20;;
57697;SDS011;43531;52.152;6.366;2023-05-31T02:49:48;8.85;;;6.38;;
57697;SDS011;43531;52.152;6.366;2023-05-31T02:50:19;9.38;;;7.35;;
57697;SDS011;43531;52.152;6.366;2023-05-31T02:51:01;10.02;;;6.82;;
57697;SDS011;43531;52.152;6.366;2023-05-31T02:52:03;7.97;;;6.05;;
57697;SDS011;43531;52.152;6.366;2023-05-31T02:53:11;9.90;;;7.00;;
57697;SDS011;43531;52.152;6.366;2023-05-31T02:54:09;8.32;;;5.47;;
57697;SDS011;43531;52.152;6.366;2023-05-31T02:54:41;10.70;;;6.55;;
57697;SDS011;43531;52.152;6.366;2023-05-31T02:55:17;10.48;;;6.22;;
57697;SDS011;43531;52.152;6.366;2023-05-31T02:56:21;9.27;;;6.82;;
57697;SDS011;43531;52.152;6.366;2023-05-31T02:57:28;7.82;;;5.10;;
57697;SDS011;43531;52.152;6.366;2023-05-31T02:57:59;10.73;;;5.57;;
57697;SDS011;43531;52.152;6.366;2023-05-31T02:58:32;7.65;;;5.90;;
57697;SDS011;43531;52.152;6.366;2023-05-31T02:59:27;11.20;;;6.38;;
57697;SDS011;43531;52.152;6.366;2023-05-31T03:00:06;12.60;;;5.93;;
57697;SDS011;43531;52.152;6.366;2023-05-31T03:00:51;9.02;;;5.78;;
57697;SDS011;43531;52.152;6.366;2023-05-31T03:01:25;7.57;;;5.05;;
57697;SDS011;43531;52.152;6.366;2023-05-31T03:02:09;9.20;;;5.72;;
57697;SDS011;43531;52.152;6.366;2023-05-31T03:02:50;13.43;;;6.80;;
57697;SDS011;43531;52.152;6.366;2023-05-31T03:03:35;11.02;;;5.93;;
57697;SDS011;43531;52.152;6.366;2023-05-31T03:04:15;9.40;;;5.40;;
57697;SDS011;43531;52.152;6.366;2023-05-31T03:04:47;9.10;;;5.68;;
57697;SDS011;43531;52.152;6.366;2023-05-31T03:05:20;9.88;;;6.55;;
57697;SDS011;43531;52.152;6.366;2023-05-31T03:05:54;10.35;;;6.97;;
57697;SDS011;43531;52.152;6.366;2023-05-31T03:06:27;9.68;;;5.88;;
57697;SDS011;43531;52.152;6.366;2023-05-31T03:06:59;13.07;;;6.65;;
57697;SDS011;43531;52.152;6.366;2023-05-31T03:07:33;9.57;;;6.13;;
57697;SDS011;43531;52.152;6.366;2023-05-31T03:08:05;10.65;;;6.35;;
57697;SDS011;43531;52.152;6.366;2023-05-31T03:08:36;8.40;;;5.75;;
57697;SDS011;43531;52.152;6.366;2023-05-31T03:09:09;10.60;;;6.68;;
57697;SDS011;43531;52.152;6.366;2023-05-31T03:09:46;7.63;;;6.05;;
57697;SDS011;43531;52.152;6.366;2023-05-31T03:10:17;9.88;;;6.13;;
57697;SDS011;43531;52.152;6.366;2023-05-31T03:10:51;8.63;;;6.38;;
57697;SDS011;43531;52.152;6.366;2023-05-31T03:11:22;7.57;;;5.57;;
57697;SDS011;43531;52.152;6.366;2023-05-31T03:11:54;8.65;;;5.60;;
57697;SDS011;43531;52.152;6.366;2023-05-31T03:12:27;9.27;;;5.97;;
57697;SDS011;43531;52.152;6.366;2023-05-31T03:12:58;8.32;;;5.95;;
57697;SDS011;43531;52.152;6.366;2023-05-31T03:13:30;9.55;;;6.32;;
57697;SDS011;43531;52.152;6.366;2023-05-31T03:14:02;7.13;;;5.88;;
57697;SDS011;43531;52.152;6.366;2023-05-31T03:14:48;9.88;;;5.68;;
57697;SDS011;43531;52.152;6.366;2023-05-31T03:15:20;9.00;;;5.95;;
57697;SDS011;43531;52.152;6.366;2023-05-31T03:15:53;9.18;;;5.88;;
57697;SDS011;43531;52.152;6.366;2023-05-31T03:16:26;9.43;;;6.80;;
57697;SDS011;43531;52.152;6.366;2023-05-31T03:16:58;7.47;;;5.65;;
57697;SDS011;43531;52.152;6.366;2023-05-31T03:17:30;11.07;;;6.63;;
57697;SDS011;43531;52.152;6.366;2023-05-31T03:18:02;11.38;;;6.93;;
57697;SDS011;43531;52.152;6.366;2023-05-31T03:18:35;8.10;;;6.15;;
57697;SDS011;43531;52.152;6.366;2023-05-31T03:19:08;9.10;;;6.93;;
57697;SDS011;43531;52.152;6.366;2023-05-31T03:19:40;10.45;;;6.50;;
57697;SDS011;43531;52.152;6.366;2023-05-31T03:20:12;10.00;;;6.65;;
57697;SDS011;43531;52.152;6.366;2023-05-31T03:20:44;12.43;;;7.75;;
57697;SDS011;43531;52.152;6.366;2023-05-31T03:21:16;9.52;;;7.90;;
57697;SDS011;43531;52.152;6.366;2023-05-31T03:21:48;10.45;;;8.23;;
57697;SDS011;43531;52.152;6.366;2023-05-31T03:22:20;10.05;;;7.45;;
57697;SDS011;43531;52.152;6.366;2023-05-31T03:22:55;11.52;;;8.15;;
57697;SDS011;43531;52.152;6.366;2023-05-31T03:23:27;12.55;;;7.85;;
57697;SDS011;43531;52.152;6.366;2023-05-31T03:23:59;12.07;;;8.43;;
57697;SDS011;43531;52.152;6.366;2023-05-31T03:24:31;12.68;;;7.90;;
57697;SDS011;43531;52.152;6.366;2023-05-31T03:25:03;13.15;;;7.82;;
57697;SDS011;43531;52.152;6.366;2023-05-31T03:25:36;15.65;;;8.20;;
57697;SDS011;43531;52.152;6.366;2023-05-31T03:26:07;9.18;;;7.53;;
57697;SDS011;43531;52.152;6.366;2023-05-31T03:26:39;12.20;;;7.93;;
57697;SDS011;43531;52.152;6.366;2023-05-31T03:27:11;10.48;;;7.82;;
57697;SDS011;43531;52.152;6.366;2023-05-31T03:27:44;10.73;;;8.15;;
57697;SDS011;43531;52.152;6.366;2023-05-31T03:28:16;9.85;;;7.68;;
57697;SDS011;43531;52.152;6.366;2023-05-31T03:28:49;14.98;;;8.93;;
57697;SDS011;43531;52.152;6.366;2023-05-31T03:29:22;11.93;;;7.97;;